Terminal Aerodrome Forecast
Issued by NWS

Home | Current Version | Previous Version | Text Only | Print | Product List | Glossary On
Versions: 1 2 3 4 5 6 7 8 9 10 11 12 13 14 15 16
000
FTUS43 KGRR 242300
TAFLAN
TAF
KLAN 242340Z 2500/2524 31003KT P6SM BKN150
     FM250500 10006KT P6SM -SHRA OVC060
     FM250800 09009KT P6SM BKN080=

USA.gov is the U.S. government's official web portal to all federal, state and local government web resources and services.